createdAt,value
2022-08-25T00:02:13.457Z,5.53
2022-08-25T00:04:40.517Z,5.20
2022-08-25T00:07:09.325Z,5.10
2022-08-25T00:09:36.081Z,5.45
2022-08-25T00:12:03.964Z,5.95
2022-08-25T00:14:34.465Z,5.93
2022-08-25T00:17:01.873Z,5.25
2022-08-25T00:19:32.254Z,5.47
2022-08-25T00:22:00.913Z,5.22
2022-08-25T00:24:28.553Z,5.57
2022-08-25T00:26:56.791Z,5.70
2022-08-25T00:29:26.009Z,5.65
2022-08-25T00:31:55.070Z,6.10
2022-08-25T00:34:25.757Z,5.82
2022-08-25T00:36:53.313Z,5.70
2022-08-25T00:39:21.582Z,5.50
2022-08-25T00:41:50.077Z,6.13
2022-08-25T00:44:20.311Z,5.68
2022-08-25T00:46:50.144Z,6.30
2022-08-25T00:49:26.139Z,5.30
2022-08-25T00:52:00.269Z,5.82
2022-08-25T00:54:30.204Z,6.00
2022-08-25T00:56:58.813Z,5.68
2022-08-25T00:59:26.576Z,6.32
2022-08-25T01:01:54.879Z,5.57
2022-08-25T01:04:21.822Z,6.32
2022-08-25T01:06:49.083Z,5.65
2022-08-25T01:09:16.087Z,6.07
2022-08-25T01:11:44.689Z,6.20
2022-08-25T01:14:14.612Z,6.10
2022-08-25T01:16:43.677Z,5.88
2022-08-25T01:19:15.205Z,6.47
2022-08-25T01:21:48.541Z,6.38
2022-08-25T01:24:26.552Z,6.15
2022-08-25T01:26:53.284Z,6.13
2022-08-25T01:29:25.442Z,5.97
2022-08-25T01:32:01.163Z,6.18
2022-08-25T01:34:30.380Z,6.40
2022-08-25T01:36:59.156Z,6.60
2022-08-25T01:39:27.833Z,6.25
2022-08-25T01:42:06.612Z,5.95
2022-08-25T01:44:36.073Z,5.55
2022-08-25T01:47:04.673Z,6.45
2022-08-25T01:49:31.423Z,5.65
2022-08-25T01:52:06.729Z,5.80
2022-08-25T01:54:33.616Z,6.15
2022-08-25T01:57:00.397Z,6.00
2022-08-25T01:59:27.807Z,5.55
2022-08-25T02:01:58.670Z,6.47
2022-08-25T02:04:29.606Z,6.15
2022-08-25T02:06:56.362Z,6.20
2022-08-25T02:09:23.315Z,6.35
2022-08-25T02:11:51.008Z,6.05
2022-08-25T02:14:20.016Z,6.43
2022-08-25T02:16:49.836Z,6.60
2022-08-25T02:19:17.949Z,6.28
2022-08-25T02:21:45.021Z,6.30
2022-08-25T02:24:12.543Z,6.63
2022-08-25T02:26:39.400Z,6.32
2022-08-25T02:29:07.612Z,6.63
2022-08-25T02:31:34.583Z,7.38
2022-08-25T02:34:02.446Z,6.13
2022-08-25T02:36:30.119Z,6.53
2022-08-25T02:38:56.797Z,6.38
2022-08-25T02:41:31.117Z,6.10
2022-08-25T02:43:59.340Z,6.35
2022-08-25T02:46:26.291Z,7.45
2022-08-25T02:48:53.439Z,6.95
2022-08-25T02:51:22.145Z,7.82
2022-08-25T02:53:49.321Z,6.75
2022-08-25T02:56:18.378Z,7.30
2022-08-25T02:58:46.128Z,7.57
2022-08-25T03:01:14.240Z,7.38
2022-08-25T03:03:43.805Z,7.53
2022-08-25T03:06:12.741Z,6.78
2022-08-25T03:08:40.376Z,7.57
2022-08-25T03:11:07.121Z,7.47
2022-08-25T03:13:34.165Z,6.75
2022-08-25T03:16:01.700Z,7.50
2022-08-25T03:18:30.322Z,8.15
2022-08-25T03:20:58.337Z,7.65
2022-08-25T03:23:25.376Z,7.88
2022-08-25T03:26:16.187Z,7.70
2022-08-25T03:28:42.952Z,7.43
2022-08-25T03:31:10.456Z,7.43
2022-08-25T03:33:38.475Z,8.18
2022-08-25T03:36:06.616Z,7.47
2022-08-25T03:38:33.370Z,7.80
2022-08-25T03:41:00.083Z,7.18
2022-08-25T03:43:26.824Z,7.50
2022-08-25T03:45:53.608Z,7.15
2022-08-25T03:48:20.381Z,7.78
2022-08-25T03:50:50.670Z,7.53
2022-08-25T03:53:19.751Z,7.20
2022-08-25T03:55:46.638Z,7.65
2022-08-25T03:58:13.509Z,7.20
2022-08-25T04:00:41.034Z,7.40
2022-08-25T04:03:08.113Z,7.60
2022-08-25T04:05:35.485Z,6.88
2022-08-25T04:08:02.494Z,7.72
2022-08-25T04:10:31.329Z,8.13
2022-08-25T04:12:58.378Z,7.47
2022-08-25T04:15:28.714Z,7.78
2022-08-25T04:17:58.997Z,9.05
2022-08-25T04:20:26.056Z,7.53
2022-08-25T04:22:52.837Z,7.93
2022-08-25T04:25:19.836Z,8.27
2022-08-25T04:27:46.620Z,8.30
2022-08-25T04:30:13.811Z,8.07
2022-08-25T04:32:40.720Z,8.25
2022-08-25T04:35:07.759Z,8.23
2022-08-25T04:37:34.807Z,8.82
2022-08-25T04:40:01.683Z,8.48
2022-08-25T04:42:28.639Z,8.90
2022-08-25T04:44:55.937Z,9.30
2022-08-25T04:47:22.903Z,8.77
2022-08-25T04:49:49.922Z,9.02
2022-08-25T04:52:16.641Z,8.57
2022-08-25T04:54:43.902Z,8.55
2022-08-25T04:57:10.825Z,9.45
2022-08-25T04:59:37.943Z,8.60
2022-08-25T05:02:06.767Z,8.82
2022-08-25T05:04:35.377Z,8.70
2022-08-25T05:07:02.991Z,8.88
2022-08-25T05:09:32.480Z,9.70
2022-08-25T05:12:04.097Z,9.25
2022-08-25T05:14:31.992Z,9.93
2022-08-25T05:16:58.746Z,8.95
2022-08-25T05:19:26.625Z,10.30
2022-08-25T05:21:54.151Z,9.48
2022-08-25T05:24:21.705Z,10.57
2022-08-25T05:26:49.446Z,10.98
2022-08-25T05:29:16.576Z,10.50
2022-08-25T05:31:49.548Z,10.45
2022-08-25T05:34:18.503Z,11.10
2022-08-25T05:36:45.327Z,10.30
2022-08-25T05:39:12.128Z,12.00
2022-08-25T05:41:39.260Z,13.18
2022-08-25T05:44:06.388Z,12.63
2022-08-25T05:46:33.353Z,12.30
2022-08-25T05:49:00.070Z,12.43
2022-08-25T05:51:27.253Z,12.95
2022-08-25T05:53:54.311Z,12.65
2022-08-25T05:56:21.295Z,13.68
2022-08-25T05:58:49.021Z,12.65
2022-08-25T06:01:43.511Z,12.32
2022-08-25T06:04:12.779Z,12.98
2022-08-25T06:06:40.114Z,12.90
2022-08-25T06:09:08.873Z,13.35
2022-08-25T06:11:37.537Z,12.70
2022-08-25T06:14:04.918Z,12.35
2022-08-25T06:16:31.852Z,14.23
2022-08-25T06:18:58.869Z,12.77
2022-08-25T06:21:25.693Z,14.07
2022-08-25T06:23:52.836Z,12.60
2022-08-25T06:26:21.281Z,12.43
2022-08-25T06:28:49.242Z,14.65
2022-08-25T06:31:16.035Z,14.57
2022-08-25T06:33:43.348Z,14.15
2022-08-25T06:36:10.429Z,14.95
2022-08-25T06:38:37.232Z,13.90
2022-08-25T06:41:08.101Z,14.52
2022-08-25T06:43:35.323Z,13.95
2022-08-25T06:46:12.980Z,15.05
2022-08-25T06:48:40.185Z,14.95
2022-08-25T06:51:08.422Z,15.45
2022-08-25T06:53:37.441Z,14.90
2022-08-25T06:56:06.722Z,15.38
2022-08-25T06:58:34.053Z,15.05
2022-08-25T07:01:20.033Z,15.15
2022-08-25T07:03:48.140Z,14.32
2022-08-25T07:06:16.588Z,14.32
2022-08-25T07:08:45.732Z,15.60
2022-08-25T07:11:14.584Z,14.20
2022-08-25T07:13:43.779Z,14.77
2022-08-25T07:16:11.522Z,15.20
2022-08-25T07:18:38.402Z,13.63
2022-08-25T07:21:05.379Z,14.27
2022-08-25T07:23:35.882Z,14.63
2022-08-25T07:29:02.422Z,14.38
2022-08-25T07:31:30.392Z,14.70
2022-08-25T07:34:16.567Z,16.50
2022-08-25T07:36:44.068Z,14.63
2022-08-25T07:39:11.128Z,15.05
2022-08-25T07:41:40.483Z,16.95
2022-08-25T07:44:07.956Z,14.68
2022-08-25T07:46:34.862Z,15.65
2022-08-25T07:49:02.023Z,14.85
2022-08-25T07:51:29.023Z,14.50
2022-08-25T07:53:56.022Z,14.85
2022-08-25T07:56:23.527Z,12.90
2022-08-25T07:58:51.209Z,13.70
2022-08-25T08:01:23.208Z,14.60
2022-08-25T08:03:51.542Z,13.30
2022-08-25T08:06:22.468Z,13.70
2022-08-25T08:08:50.575Z,14.45
2022-08-25T08:11:22.918Z,12.98
2022-08-25T08:13:51.979Z,13.30
2022-08-25T08:16:19.726Z,13.05
2022-08-25T08:18:47.068Z,11.93
2022-08-25T08:21:19.903Z,11.23
2022-08-25T08:23:49.290Z,12.77
2022-08-25T08:26:17.000Z,13.13
2022-08-25T08:28:51.941Z,12.02
2022-08-25T08:31:21.373Z,11.13
2022-08-25T08:33:49.458Z,12.07
2022-08-25T08:36:17.213Z,10.85
2022-08-25T08:38:45.256Z,10.90
2022-08-25T08:42:11.238Z,10.63
2022-08-25T08:44:45.018Z,10.90
2022-08-25T08:47:11.686Z,11.07
2022-08-25T08:49:53.140Z,10.18
2022-08-25T08:52:23.148Z,9.60
2022-08-25T08:54:58.637Z,11.35
2022-08-25T08:57:27.393Z,11.10
2022-08-25T09:00:02.519Z,10.23
2022-08-25T09:02:51.607Z,10.15
2022-08-25T09:05:21.202Z,10.35
2022-08-25T09:07:57.287Z,10.77
2022-08-25T09:10:26.984Z,11.18
2022-08-25T09:12:55.100Z,10.45
2022-08-25T09:15:48.045Z,10.73
2022-08-25T09:18:27.601Z,11.32
2022-08-25T09:21:30.444Z,10.48
2022-08-25T09:24:26.762Z,10.38
2022-08-25T09:27:18.636Z,11.13
2022-08-25T09:30:19.531Z,10.30
2022-08-25T09:33:03.932Z,11.20
2022-08-25T09:35:35.034Z,11.52
2022-08-25T09:38:09.556Z,11.00
2022-08-25T09:40:45.352Z,10.57
2022-08-25T09:43:22.605Z,11.38
2022-08-25T09:45:58.531Z,10.57
2022-08-25T09:48:40.668Z,10.60
2022-08-25T09:51:38.148Z,10.55
2022-08-25T09:54:12.766Z,10.18
2022-08-25T09:56:57.235Z,9.73
2022-08-25T09:59:36.026Z,9.68
2022-08-25T10:02:06.776Z,9.00
2022-08-25T10:04:37.235Z,9.00
2022-08-25T10:07:19.745Z,9.20
2022-08-25T10:10:02.035Z,8.50
2022-08-25T10:12:37.841Z,9.07
2022-08-25T10:15:37.536Z,8.77
2022-08-25T10:18:25.764Z,8.25
2022-08-25T10:21:08.152Z,8.90
2022-08-25T10:23:41.546Z,8.15
2022-08-25T10:26:13.958Z,7.43
2022-08-25T10:28:47.516Z,8.05
2022-08-25T10:31:32.964Z,7.82
2022-08-25T10:34:36.049Z,7.38
2022-08-25T10:37:12.965Z,7.40
2022-08-25T10:40:04.031Z,7.63
2022-08-25T10:42:39.556Z,7.38
2022-08-25T10:45:40.760Z,7.15
2022-08-25T10:48:41.985Z,7.40
2022-08-25T10:51:27.687Z,6.68
2022-08-25T10:54:06.538Z,5.88
2022-08-25T10:56:41.550Z,6.60
2022-08-25T10:59:22.481Z,5.97
2022-08-25T11:02:13.649Z,6.13
2022-08-25T11:04:45.287Z,5.50
2022-08-25T11:07:31.088Z,5.43
2022-08-25T11:10:03.757Z,6.03
2022-08-25T11:12:35.161Z,5.70
2022-08-25T11:16:16.612Z,5.78
2022-08-25T11:18:57.628Z,5.88
2022-08-25T11:21:34.887Z,5.20
2022-08-25T11:24:11.125Z,5.10
2022-08-25T11:26:38.207Z,4.97
2022-08-25T11:29:16.706Z,5.22
2022-08-25T11:31:53.917Z,5.47
2022-08-25T11:34:21.770Z,5.15
2022-08-25T11:37:11.544Z,5.32
2022-08-25T11:39:53.574Z,5.32
2022-08-25T11:42:35.536Z,4.78
2022-08-25T11:45:22.419Z,4.65
2022-08-25T11:48:22.370Z,5.20
2022-08-25T11:50:59.798Z,5.13
2022-08-25T11:53:45.213Z,4.75
2022-08-25T11:56:35.144Z,4.70
2022-08-25T11:59:02.073Z,4.38
2022-08-25T12:01:40.985Z,5.07
2022-08-25T12:04:42.255Z,4.80
2022-08-25T12:07:15.035Z,4.35
2022-08-25T12:09:53.948Z,5.20
2022-08-25T12:12:36.524Z,4.68
2022-08-25T12:15:22.259Z,4.50
2022-08-25T12:18:13.463Z,5.13
2022-08-25T12:20:58.631Z,5.10
2022-08-25T12:23:45.083Z,5.63
2022-08-25T12:26:34.591Z,5.82
2022-08-25T12:29:10.657Z,4.93
2022-08-25T12:32:04.936Z,5.35
2022-08-25T12:35:07.474Z,5.40
2022-08-25T12:37:35.470Z,5.18
2022-08-25T12:40:05.295Z,4.38
2022-08-25T12:42:40.221Z,4.82
2022-08-25T12:45:25.544Z,5.07
2022-08-25T12:47:54.440Z,4.38
2022-08-25T12:50:35.037Z,4.65
2022-08-25T12:53:24.614Z,4.50
2022-08-25T12:56:01.066Z,4.60
2022-08-25T12:58:58.945Z,4.60
2022-08-25T13:02:07.424Z,5.55
2022-08-25T13:05:03.565Z,5.03
2022-08-25T13:07:36.869Z,5.30
2022-08-25T13:10:11.949Z,5.00
2022-08-25T13:13:04.431Z,5.53
2022-08-25T13:15:41.056Z,5.63
2022-08-25T13:18:23.629Z,5.80
2022-08-25T13:21:03.483Z,5.25
2022-08-25T13:23:31.743Z,5.68
2022-08-25T13:25:58.639Z,5.00
2022-08-25T13:28:30.761Z,5.30
2022-08-25T13:31:03.538Z,5.22
2022-08-25T13:33:31.033Z,5.30
2022-08-25T13:36:17.911Z,4.95
2022-08-25T13:38:46.825Z,5.55
2022-08-25T13:41:29.166Z,5.30
2022-08-25T13:44:00.852Z,5.05
2022-08-25T13:46:28.763Z,5.03
2022-08-25T13:49:06.353Z,5.25
2022-08-25T13:51:33.096Z,4.90
2022-08-25T13:54:06.369Z,5.15
2022-08-25T13:56:38.834Z,5.00
2022-08-25T13:59:23.646Z,5.03
2022-08-25T14:01:54.383Z,5.45
2022-08-25T14:04:25.197Z,4.85
2022-08-25T14:07:12.124Z,4.85
2022-08-25T14:09:55.234Z,4.60
2022-08-25T14:12:35.841Z,4.65
2022-08-25T14:15:11.048Z,5.30
2022-08-25T14:17:40.869Z,4.72
2022-08-25T14:20:19.286Z,4.63
2022-08-25T14:22:46.423Z,4.60
2022-08-25T14:25:13.523Z,4.90
2022-08-25T14:30:36.681Z,4.85
2022-08-25T14:33:04.523Z,4.28
2022-08-25T14:35:31.896Z,4.97
2022-08-25T14:37:59.043Z,4.60
2022-08-25T14:40:26.315Z,4.95
2022-08-25T14:42:57.733Z,4.78
2022-08-25T14:45:24.898Z,5.05
2022-08-25T14:47:51.790Z,5.90
2022-08-25T14:50:20.843Z,4.45
2022-08-25T14:52:51.975Z,5.32
2022-08-25T14:55:31.206Z,4.72
2022-08-25T14:57:59.903Z,4.25
2022-08-25T15:00:26.908Z,4.18
2022-08-25T15:02:55.011Z,5.40
2022-08-25T15:05:27.085Z,4.93
2022-08-25T15:08:14.378Z,4.57
2022-08-25T15:10:42.135Z,4.30
2022-08-25T15:13:10.887Z,5.20
2022-08-25T15:15:52.679Z,4.95
2022-08-25T15:18:20.975Z,4.60
2022-08-25T15:20:49.875Z,4.68
2022-08-25T15:23:18.717Z,4.47
2022-08-25T15:25:46.895Z,4.25
2022-08-25T15:28:17.226Z,4.20
2022-08-25T15:30:45.678Z,4.70
2022-08-25T15:33:15.721Z,4.60
2022-08-25T15:35:43.505Z,5.07
2022-08-25T15:38:12.106Z,4.72
2022-08-25T15:40:39.928Z,5.25
2022-08-25T15:43:10.225Z,5.10
2022-08-25T15:45:37.805Z,4.85
2022-08-25T15:48:09.360Z,4.40
2022-08-25T15:50:36.620Z,4.93
2022-08-25T15:53:03.723Z,5.22
2022-08-25T15:55:39.570Z,4.50
2022-08-25T15:58:07.064Z,5.38
2022-08-25T16:00:35.944Z,4.07
2022-08-25T16:03:04.760Z,4.18
2022-08-25T16:05:37.308Z,5.25
2022-08-25T16:08:04.369Z,4.40
2022-08-25T16:10:38.384Z,4.55
2022-08-25T16:13:05.665Z,4.40
2022-08-25T16:15:32.666Z,4.53
2022-08-25T16:18:01.174Z,5.32
2022-08-25T16:20:29.385Z,4.38
2022-08-25T16:22:56.204Z,5.05
2022-08-25T16:25:22.974Z,4.90
2022-08-25T16:27:49.868Z,4.55
2022-08-25T16:30:17.675Z,4.20
2022-08-25T16:32:45.084Z,5.00
2022-08-25T16:35:13.133Z,4.82
2022-08-25T16:37:40.942Z,4.97
2022-08-25T16:40:13.507Z,4.55
2022-08-25T16:42:41.784Z,5.50
2022-08-25T16:45:09.238Z,4.47
2022-08-25T16:47:38.278Z,4.28
2022-08-25T16:50:09.280Z,4.25
2022-08-25T16:52:56.203Z,4.65
2022-08-25T16:55:25.697Z,4.47
2022-08-25T16:57:56.312Z,5.25
2022-08-25T17:00:28.791Z,3.90
2022-08-25T17:02:59.511Z,4.53
2022-08-25T17:05:29.554Z,5.15
2022-08-25T17:08:25.568Z,4.53
2022-08-25T17:10:52.551Z,5.07
2022-08-25T17:13:19.394Z,4.70
2022-08-25T17:15:48.791Z,4.00
2022-08-25T17:18:19.287Z,4.70
2022-08-25T17:20:48.776Z,4.72
2022-08-25T17:23:18.087Z,4.70
2022-08-25T17:25:50.056Z,5.10
2022-08-25T17:28:17.019Z,4.78
2022-08-25T17:30:44.310Z,5.20
2022-08-25T17:33:12.417Z,4.93
2022-08-25T17:35:44.380Z,5.47
2022-08-25T17:38:12.262Z,5.35
2022-08-25T17:40:39.421Z,4.78
2022-08-25T17:43:09.086Z,4.63
2022-08-25T17:45:36.600Z,4.70
2022-08-25T17:48:03.713Z,5.20
2022-08-25T17:50:31.784Z,5.60
2022-08-25T17:53:01.203Z,6.00
2022-08-25T17:55:27.980Z,4.97
2022-08-25T17:57:54.805Z,5.78
2022-08-25T18:00:22.188Z,5.38
2022-08-25T18:02:49.114Z,5.22
2022-08-25T18:05:17.659Z,5.25
2022-08-25T18:07:45.491Z,5.72
2022-08-25T18:10:12.779Z,5.65
2022-08-25T18:12:40.028Z,5.38
2022-08-25T18:15:08.193Z,5.35
2022-08-25T18:17:35.910Z,5.63
2022-08-25T18:20:06.109Z,5.53
2022-08-25T18:22:33.318Z,5.53
2022-08-25T18:25:00.334Z,6.00
2022-08-25T18:27:28.340Z,7.07
2022-08-25T18:29:56.072Z,9.40
2022-08-25T18:32:25.958Z,7.43
2022-08-25T18:34:54.439Z,6.82
2022-08-25T18:37:40.233Z,6.78
2022-08-25T18:40:22.880Z,7.05
2022-08-25T18:42:58.274Z,6.40
2022-08-25T18:45:49.664Z,6.72
2022-08-25T18:48:19.972Z,6.90
2022-08-25T18:50:50.661Z,6.38
2022-08-25T18:53:19.457Z,6.20
2022-08-25T18:55:58.239Z,6.43
2022-08-25T18:58:26.024Z,6.78
2022-08-25T19:00:52.852Z,6.57
2022-08-25T19:03:22.475Z,6.43
2022-08-25T19:05:57.158Z,6.47
2022-08-25T19:08:24.568Z,6.90
2022-08-25T19:10:52.976Z,6.82
2022-08-25T19:13:22.801Z,6.93
2022-08-25T19:15:51.345Z,6.82
2022-08-25T19:18:19.125Z,6.93
2022-08-25T19:20:52.995Z,7.10
2022-08-25T19:23:20.108Z,7.28
2022-08-25T19:25:46.948Z,6.75
2022-08-25T19:28:14.261Z,7.57
2022-08-25T19:30:50.228Z,7.65
2022-08-25T19:33:42.338Z,7.05
2022-08-25T19:36:08.743Z,7.60
2022-08-25T19:38:36.204Z,7.70
2022-08-25T19:41:10.645Z,7.22
2022-08-25T19:43:55.457Z,6.97
2022-08-25T19:46:32.728Z,7.63
2022-08-25T19:49:14.410Z,7.97
2022-08-25T19:51:44.710Z,6.90
2022-08-25T19:54:13.627Z,7.50
2022-08-25T19:56:53.821Z,7.65
2022-08-25T19:59:42.669Z,7.97
2022-08-25T20:02:18.641Z,7.47
2022-08-25T20:04:49.506Z,7.47
2022-08-25T20:07:23.620Z,7.05
2022-08-25T20:09:51.830Z,7.65
2022-08-25T20:12:20.379Z,7.20
2022-08-25T20:14:48.846Z,8.20
2022-08-25T20:17:24.598Z,8.77
2022-08-25T20:19:58.409Z,7.82
2022-08-25T20:22:30.656Z,8.23
2022-08-25T20:25:00.547Z,8.43
2022-08-25T20:27:33.089Z,7.93
2022-08-25T20:30:02.769Z,8.82
2022-08-25T20:32:31.703Z,7.97
2022-08-25T20:34:58.504Z,8.07
2022-08-25T20:37:25.922Z,8.40
2022-08-25T20:39:53.070Z,9.00
2022-08-25T20:42:20.288Z,8.85
2022-08-25T20:44:47.274Z,8.80
2022-08-25T20:47:15.502Z,8.57
2022-08-25T20:49:44.061Z,8.35
2022-08-25T20:52:12.103Z,8.73
2022-08-25T20:54:40.400Z,8.68
2022-08-25T20:57:08.138Z,8.40
2022-08-25T20:59:35.080Z,8.20
2022-08-25T21:02:02.312Z,9.45
2022-08-25T21:04:30.612Z,9.07
2022-08-25T21:07:00.329Z,8.48
2022-08-25T21:09:28.325Z,8.85
2022-08-25T21:11:57.040Z,8.75
2022-08-25T21:14:24.969Z,8.88
2022-08-25T21:16:53.308Z,8.77
2022-08-25T21:19:26.317Z,9.00
2022-08-25T21:21:54.146Z,8.07
2022-08-25T21:24:26.609Z,8.57
2022-08-25T21:26:56.074Z,8.38
2022-08-25T21:29:24.660Z,8.63
2022-08-25T21:31:51.808Z,9.55
2022-08-25T21:34:20.053Z,8.30
2022-08-25T21:36:47.999Z,8.70
2022-08-25T21:39:15.257Z,9.68
2022-08-25T21:41:44.409Z,8.90
2022-08-25T21:44:13.829Z,8.85
2022-08-25T21:46:41.333Z,10.48
2022-08-25T21:49:08.766Z,8.10
2022-08-25T21:51:40.789Z,8.73
2022-08-25T21:54:10.441Z,9.20
2022-08-25T21:56:55.602Z,8.90
2022-08-25T21:59:28.843Z,8.95
2022-08-25T22:01:57.565Z,8.95
2022-08-25T22:04:24.996Z,9.50
2022-08-25T22:06:52.001Z,9.63
2022-08-25T22:09:18.708Z,9.32
2022-08-25T22:11:46.482Z,9.35
2022-08-25T22:14:15.039Z,8.82
2022-08-25T22:16:42.682Z,9.75
2022-08-25T22:19:11.840Z,9.13
2022-08-25T22:21:42.270Z,9.75
2022-08-25T22:24:09.204Z,9.18
2022-08-25T22:26:36.283Z,9.07
2022-08-25T22:29:04.378Z,9.02
2022-08-25T22:31:33.521Z,9.15
2022-08-25T22:34:00.646Z,9.15
2022-08-25T22:36:32.793Z,10.15
2022-08-25T22:38:59.915Z,9.48
2022-08-25T22:41:29.253Z,9.13
2022-08-25T22:43:56.895Z,9.93
2022-08-25T22:46:26.095Z,9.35
2022-08-25T22:48:55.413Z,9.32
2022-08-25T22:51:27.500Z,9.50
2022-08-25T22:53:54.808Z,9.75
2022-08-25T22:56:32.962Z,9.40
2022-08-25T22:59:03.309Z,9.60
2022-08-25T23:01:32.109Z,9.60
2022-08-25T23:04:00.739Z,8.95
2022-08-25T23:06:29.067Z,9.02
2022-08-25T23:08:56.388Z,8.68
2022-08-25T23:11:24.386Z,8.98
2022-08-25T23:13:54.806Z,9.52
2022-08-25T23:16:22.375Z,9.27
2022-08-25T23:18:49.158Z,9.23
2022-08-25T23:21:38.009Z,10.02
2022-08-25T23:24:12.109Z,8.82
2022-08-25T23:26:42.021Z,9.23
2022-08-25T23:29:18.339Z,9.13
2022-08-25T23:31:47.681Z,9.88
2022-08-25T23:34:15.770Z,9.63
2022-08-25T23:36:43.407Z,10.10
2022-08-25T23:39:13.772Z,8.82
2022-08-25T23:41:40.608Z,8.60
2022-08-25T23:44:09.393Z,10.25
2022-08-25T23:46:39.713Z,9.02
2022-08-25T23:49:08.386Z,9.82
2022-08-25T23:51:38.325Z,8.88
2022-08-25T23:54:09.195Z,10.35
2022-08-25T23:56:42.331Z,9.93
2022-08-25T23:59:11.980Z,10.00
